sensor_id;sensor_type;location;lat;lon;timestamp;P1;durP1;ratioP1;P2;durP2;ratioP2
25231;SDS011;13176;51.140;6.290;2023-11-22T00:00:49;30.85;;;28.45;;
25231;SDS011;13176;51.140;6.290;2023-11-22T00:03:16;31.33;;;29.00;;
25231;SDS011;13176;51.140;6.290;2023-11-22T00:05:42;32.65;;;30.45;;
25231;SDS011;13176;51.140;6.290;2023-11-22T00:08:09;29.13;;;27.13;;
25231;SDS011;13176;51.140;6.290;2023-11-22T00:10:35;29.15;;;26.95;;
25231;SDS011;13176;51.140;6.290;2023-11-22T00:13:01;28.77;;;26.67;;
25231;SDS011;13176;51.140;6.290;2023-11-22T00:15:28;28.10;;;26.00;;
25231;SDS011;13176;51.140;6.290;2023-11-22T00:17:54;27.20;;;25.40;;
25231;SDS011;13176;51.140;6.290;2023-11-22T00:20:23;27.92;;;25.98;;
25231;SDS011;13176;51.140;6.290;2023-11-22T00:22:50;27.55;;;25.65;;
25231;SDS011;13176;51.140;6.290;2023-11-22T00:25:16;27.65;;;25.75;;
25231;SDS011;13176;51.140;6.290;2023-11-22T00:27:44;28.23;;;26.05;;
25231;SDS011;13176;51.140;6.290;2023-11-22T00:30:11;26.75;;;24.85;;
25231;SDS011;13176;51.140;6.290;2023-11-22T00:32:37;26.88;;;24.88;;
25231;SDS011;13176;51.140;6.290;2023-11-22T00:35:04;28.02;;;26.00;;
25231;SDS011;13176;51.140;6.290;2023-11-22T00:37:31;27.40;;;25.15;;
25231;SDS011;13176;51.140;6.290;2023-11-22T00:39:57;28.40;;;26.40;;
25231;SDS011;13176;51.140;6.290;2023-11-22T00:42:25;26.70;;;24.88;;
25231;SDS011;13176;51.140;6.290;2023-11-22T00:44:53;27.67;;;25.48;;
25231;SDS011;13176;51.140;6.290;2023-11-22T00:47:19;28.27;;;25.77;;
25231;SDS011;13176;51.140;6.290;2023-11-22T00:49:46;25.92;;;24.02;;
25231;SDS011;13176;51.140;6.290;2023-11-22T00:52:12;27.63;;;25.52;;
25231;SDS011;13176;51.140;6.290;2023-11-22T00:54:39;27.20;;;25.23;;
25231;SDS011;13176;51.140;6.290;2023-11-22T00:57:05;28.40;;;26.50;;
25231;SDS011;13176;51.140;6.290;2023-11-22T00:59:33;31.40;;;29.05;;
25231;SDS011;13176;51.140;6.290;2023-11-22T01:01:59;33.97;;;31.48;;
25231;SDS011;13176;51.140;6.290;2023-11-22T01:04:26;34.28;;;31.58;;
25231;SDS011;13176;51.140;6.290;2023-11-22T01:06:52;34.38;;;32.05;;
25231;SDS011;13176;51.140;6.290;2023-11-22T01:09:19;33.03;;;30.60;;
25231;SDS011;13176;51.140;6.290;2023-11-22T01:11:45;31.48;;;29.00;;
25231;SDS011;13176;51.140;6.290;2023-11-22T01:14:12;30.55;;;28.42;;
25231;SDS011;13176;51.140;6.290;2023-11-22T01:16:38;32.65;;;30.45;;
25231;SDS011;13176;51.140;6.290;2023-11-22T01:19:05;33.03;;;30.63;;
25231;SDS011;13176;51.140;6.290;2023-11-22T01:21:31;32.40;;;29.98;;
25231;SDS011;13176;51.140;6.290;2023-11-22T01:23:57;29.67;;;27.60;;
25231;SDS011;13176;51.140;6.290;2023-11-22T01:26:24;28.15;;;25.63;;
25231;SDS011;13176;51.140;6.290;2023-11-22T01:28:52;27.98;;;25.98;;
25231;SDS011;13176;51.140;6.290;2023-11-22T01:31:18;30.38;;;28.25;;
25231;SDS011;13176;51.140;6.290;2023-11-22T01:33:47;28.92;;;26.88;;
25231;SDS011;13176;51.140;6.290;2023-11-22T01:36:14;32.58;;;30.02;;
25231;SDS011;13176;51.140;6.290;2023-11-22T01:38:41;36.65;;;33.88;;
25231;SDS011;13176;51.140;6.290;2023-11-22T01:41:10;40.25;;;37.45;;
25231;SDS011;13176;51.140;6.290;2023-11-22T01:43:39;40.08;;;37.17;;
25231;SDS011;13176;51.140;6.290;2023-11-22T01:46:07;41.97;;;39.00;;
25231;SDS011;13176;51.140;6.290;2023-11-22T01:48:35;41.50;;;38.55;;
25231;SDS011;13176;51.140;6.290;2023-11-22T01:51:03;41.85;;;38.95;;
25231;SDS011;13176;51.140;6.290;2023-11-22T01:53:30;40.60;;;37.53;;
25231;SDS011;13176;51.140;6.290;2023-11-22T01:55:58;40.45;;;37.20;;
25231;SDS011;13176;51.140;6.290;2023-11-22T01:58:25;39.80;;;36.85;;
25231;SDS011;13176;51.140;6.290;2023-11-22T02:00:51;39.13;;;36.00;;
25231;SDS011;13176;51.140;6.290;2023-11-22T02:03:18;38.53;;;35.75;;
25231;SDS011;13176;51.140;6.290;2023-11-22T02:05:45;41.13;;;38.17;;
25231;SDS011;13176;51.140;6.290;2023-11-22T02:08:12;40.03;;;37.10;;
25231;SDS011;13176;51.140;6.290;2023-11-22T02:10:39;42.50;;;39.17;;
25231;SDS011;13176;51.140;6.290;2023-11-22T02:13:07;43.35;;;39.97;;
25231;SDS011;13176;51.140;6.290;2023-11-22T02:15:34;41.70;;;38.38;;
25231;SDS011;13176;51.140;6.290;2023-11-22T02:18:01;44.50;;;40.70;;
25231;SDS011;13176;51.140;6.290;2023-11-22T02:20:38;42.70;;;39.25;;
25231;SDS011;13176;51.140;6.290;2023-11-22T02:23:08;42.72;;;39.42;;
25231;SDS011;13176;51.140;6.290;2023-11-22T02:25:37;43.03;;;39.60;;
25231;SDS011;13176;51.140;6.290;2023-11-22T02:28:04;43.55;;;40.28;;
25231;SDS011;13176;51.140;6.290;2023-11-22T02:30:31;47.22;;;43.83;;
25231;SDS011;13176;51.140;6.290;2023-11-22T02:32:58;46.95;;;43.40;;
25231;SDS011;13176;51.140;6.290;2023-11-22T02:35:24;49.03;;;45.33;;
25231;SDS011;13176;51.140;6.290;2023-11-22T02:37:51;50.72;;;46.90;;
25231;SDS011;13176;51.140;6.290;2023-11-22T02:40:18;46.60;;;43.10;;
25231;SDS011;13176;51.140;6.290;2023-11-22T02:42:52;48.38;;;44.72;;
25231;SDS011;13176;51.140;6.290;2023-11-22T02:45:20;47.75;;;44.08;;
25231;SDS011;13176;51.140;6.290;2023-11-22T02:47:50;46.38;;;42.83;;
25231;SDS011;13176;51.140;6.290;2023-11-22T02:50:16;45.28;;;41.67;;
25231;SDS011;13176;51.140;6.290;2023-11-22T02:52:43;48.78;;;44.28;;
25231;SDS011;13176;51.140;6.290;2023-11-22T02:55:09;50.75;;;46.22;;
25231;SDS011;13176;51.140;6.290;2023-11-22T02:57:36;48.40;;;44.33;;
25231;SDS011;13176;51.140;6.290;2023-11-22T03:00:04;48.13;;;43.78;;
25231;SDS011;13176;51.140;6.290;2023-11-22T03:02:31;50.75;;;46.55;;
25231;SDS011;13176;51.140;6.290;2023-11-22T03:05:00;49.35;;;44.85;;
25231;SDS011;13176;51.140;6.290;2023-11-22T03:07:27;48.15;;;43.90;;
25231;SDS011;13176;51.140;6.290;2023-11-22T03:09:53;49.65;;;45.28;;
25231;SDS011;13176;51.140;6.290;2023-11-22T03:12:20;52.33;;;47.65;;
25231;SDS011;13176;51.140;6.290;2023-11-22T03:14:46;49.25;;;44.78;;
25231;SDS011;13176;51.140;6.290;2023-11-22T03:17:14;50.47;;;45.75;;
25231;SDS011;13176;51.140;6.290;2023-11-22T03:19:41;48.88;;;44.50;;
25231;SDS011;13176;51.140;6.290;2023-11-22T03:22:07;48.97;;;44.65;;
25231;SDS011;13176;51.140;6.290;2023-11-22T03:24:34;50.05;;;45.42;;
25231;SDS011;13176;51.140;6.290;2023-11-22T03:27:03;50.60;;;45.30;;
25231;SDS011;13176;51.140;6.290;2023-11-22T03:29:29;50.92;;;46.42;;
25231;SDS011;13176;51.140;6.290;2023-11-22T03:31:56;51.58;;;46.92;;
25231;SDS011;13176;51.140;6.290;2023-11-22T03:34:22;50.75;;;46.08;;
25231;SDS011;13176;51.140;6.290;2023-11-22T03:36:49;50.30;;;45.92;;
25231;SDS011;13176;51.140;6.290;2023-11-22T03:39:15;51.08;;;46.67;;
25231;SDS011;13176;51.140;6.290;2023-11-22T03:41:42;50.25;;;45.30;;
25231;SDS011;13176;51.140;6.290;2023-11-22T03:44:09;52.30;;;47.55;;
25231;SDS011;13176;51.140;6.290;2023-11-22T03:46:36;50.75;;;46.17;;
25231;SDS011;13176;51.140;6.290;2023-11-22T03:49:04;49.58;;;45.17;;
25231;SDS011;13176;51.140;6.290;2023-11-22T03:51:33;49.95;;;45.28;;
25231;SDS011;13176;51.140;6.290;2023-11-22T03:54:00;50.28;;;45.38;;
25231;SDS011;13176;51.140;6.290;2023-11-22T03:56:26;49.25;;;45.08;;
25231;SDS011;13176;51.140;6.290;2023-11-22T03:58:52;49.53;;;44.72;;
25231;SDS011;13176;51.140;6.290;2023-11-22T04:01:19;51.03;;;46.35;;
25231;SDS011;13176;51.140;6.290;2023-11-22T04:03:47;52.75;;;48.10;;
25231;SDS011;13176;51.140;6.290;2023-11-22T04:06:17;54.28;;;49.58;;
25231;SDS011;13176;51.140;6.290;2023-11-22T04:08:45;54.03;;;49.13;;
25231;SDS011;13176;51.140;6.290;2023-11-22T04:11:12;50.88;;;46.33;;
25231;SDS011;13176;51.140;6.290;2023-11-22T04:13:39;51.58;;;46.55;;
25231;SDS011;13176;51.140;6.290;2023-11-22T04:16:06;52.78;;;47.97;;
25231;SDS011;13176;51.140;6.290;2023-11-22T04:18:35;53.22;;;47.90;;
25231;SDS011;13176;51.140;6.290;2023-11-22T04:21:04;51.10;;;46.60;;
25231;SDS011;13176;51.140;6.290;2023-11-22T04:23:31;52.83;;;48.15;;
25231;SDS011;13176;51.140;6.290;2023-11-22T04:26:01;51.88;;;46.90;;
25231;SDS011;13176;51.140;6.290;2023-11-22T04:28:29;53.35;;;48.40;;
25231;SDS011;13176;51.140;6.290;2023-11-22T04:30:56;52.30;;;47.50;;
25231;SDS011;13176;51.140;6.290;2023-11-22T04:33:23;55.78;;;50.30;;
25231;SDS011;13176;51.140;6.290;2023-11-22T04:35:50;54.00;;;48.95;;
25231;SDS011;13176;51.140;6.290;2023-11-22T04:38:17;56.63;;;51.22;;
25231;SDS011;13176;51.140;6.290;2023-11-22T04:40:44;57.58;;;51.90;;
25231;SDS011;13176;51.140;6.290;2023-11-22T04:43:11;54.83;;;49.53;;
25231;SDS011;13176;51.140;6.290;2023-11-22T04:45:38;55.13;;;49.80;;
25231;SDS011;13176;51.140;6.290;2023-11-22T04:48:05;56.67;;;51.03;;
25231;SDS011;13176;51.140;6.290;2023-11-22T04:50:33;58.10;;;52.47;;
25231;SDS011;13176;51.140;6.290;2023-11-22T04:53:00;58.90;;;53.00;;
25231;SDS011;13176;51.140;6.290;2023-11-22T04:55:28;58.78;;;52.90;;
25231;SDS011;13176;51.140;6.290;2023-11-22T04:57:54;59.47;;;53.88;;
25231;SDS011;13176;51.140;6.290;2023-11-22T05:00:21;57.40;;;51.63;;
25231;SDS011;13176;51.140;6.290;2023-11-22T05:02:51;58.80;;;52.67;;
25231;SDS011;13176;51.140;6.290;2023-11-22T05:05:17;55.03;;;49.55;;
25231;SDS011;13176;51.140;6.290;2023-11-22T05:07:44;58.35;;;52.55;;
25231;SDS011;13176;51.140;6.290;2023-11-22T05:10:11;58.83;;;53.00;;
25231;SDS011;13176;51.140;6.290;2023-11-22T05:12:38;59.55;;;53.70;;
25231;SDS011;13176;51.140;6.290;2023-11-22T05:15:05;58.08;;;52.33;;
25231;SDS011;13176;51.140;6.290;2023-11-22T05:17:32;58.75;;;53.08;;
25231;SDS011;13176;51.140;6.290;2023-11-22T05:19:59;57.50;;;51.97;;
25231;SDS011;13176;51.140;6.290;2023-11-22T05:22:26;59.58;;;54.15;;
25231;SDS011;13176;51.140;6.290;2023-11-22T05:24:52;57.30;;;51.90;;
25231;SDS011;13176;51.140;6.290;2023-11-22T05:27:18;57.30;;;51.67;;
25231;SDS011;13176;51.140;6.290;2023-11-22T05:29:45;56.97;;;51.53;;
25231;SDS011;13176;51.140;6.290;2023-11-22T05:32:20;56.13;;;50.80;;
25231;SDS011;13176;51.140;6.290;2023-11-22T05:34:47;57.65;;;52.17;;
25231;SDS011;13176;51.140;6.290;2023-11-22T05:37:14;56.55;;;50.85;;
25231;SDS011;13176;51.140;6.290;2023-11-22T05:39:40;54.83;;;49.72;;
25231;SDS011;13176;51.140;6.290;2023-11-22T05:42:07;55.40;;;50.33;;
25231;SDS011;13176;51.140;6.290;2023-11-22T05:44:33;57.38;;;51.75;;
25231;SDS011;13176;51.140;6.290;2023-11-22T05:47:00;56.65;;;51.45;;
25231;SDS011;13176;51.140;6.290;2023-11-22T05:49:26;53.28;;;48.20;;
25231;SDS011;13176;51.140;6.290;2023-11-22T05:51:53;55.08;;;49.97;;
25231;SDS011;13176;51.140;6.290;2023-11-22T05:54:19;54.72;;;49.55;;
25231;SDS011;13176;51.140;6.290;2023-11-22T05:56:45;56.22;;;50.92;;
25231;SDS011;13176;51.140;6.290;2023-11-22T05:59:12;57.13;;;51.72;;
25231;SDS011;13176;51.140;6.290;2023-11-22T06:01:39;52.30;;;47.33;;
25231;SDS011;13176;51.140;6.290;2023-11-22T06:04:06;54.10;;;48.63;;
25231;SDS011;13176;51.140;6.290;2023-11-22T06:06:35;54.22;;;48.78;;
25231;SDS011;13176;51.140;6.290;2023-11-22T06:09:03;53.95;;;48.65;;
25231;SDS011;13176;51.140;6.290;2023-11-22T06:11:31;54.20;;;48.70;;
25231;SDS011;13176;51.140;6.290;2023-11-22T06:13:58;53.05;;;48.03;;
25231;SDS011;13176;51.140;6.290;2023-11-22T06:16:25;51.85;;;46.67;;
25231;SDS011;13176;51.140;6.290;2023-11-22T06:18:51;54.70;;;48.90;;
25231;SDS011;13176;51.140;6.290;2023-11-22T06:21:18;49.45;;;44.63;;
25231;SDS011;13176;51.140;6.290;2023-11-22T06:23:45;51.95;;;46.63;;
25231;SDS011;13176;51.140;6.290;2023-11-22T06:26:11;51.97;;;47.08;;
25231;SDS011;13176;51.140;6.290;2023-11-22T06:28:38;53.03;;;47.63;;
25231;SDS011;13176;51.140;6.290;2023-11-22T06:31:04;53.72;;;48.35;;
25231;SDS011;13176;51.140;6.290;2023-11-22T06:33:31;53.05;;;47.55;;
25231;SDS011;13176;51.140;6.290;2023-11-22T06:35:57;53.15;;;47.55;;
25231;SDS011;13176;51.140;6.290;2023-11-22T06:38:24;53.83;;;48.10;;
25231;SDS011;13176;51.140;6.290;2023-11-22T06:40:50;56.70;;;49.03;;
25231;SDS011;13176;51.140;6.290;2023-11-22T06:43:17;52.95;;;47.53;;
25231;SDS011;13176;51.140;6.290;2023-11-22T06:45:44;52.05;;;46.67;;
25231;SDS011;13176;51.140;6.290;2023-11-22T06:48:11;54.10;;;48.50;;
25231;SDS011;13176;51.140;6.290;2023-11-22T06:50:38;54.50;;;48.53;;
25231;SDS011;13176;51.140;6.290;2023-11-22T06:53:04;52.25;;;46.88;;
25231;SDS011;13176;51.140;6.290;2023-11-22T06:55:32;51.53;;;46.45;;
25231;SDS011;13176;51.140;6.290;2023-11-22T06:57:59;52.00;;;46.80;;
25231;SDS011;13176;51.140;6.290;2023-11-22T07:00:25;50.25;;;45.35;;
25231;SDS011;13176;51.140;6.290;2023-11-22T07:02:53;49.72;;;44.97;;
25231;SDS011;13176;51.140;6.290;2023-11-22T07:05:20;47.72;;;43.03;;
25231;SDS011;13176;51.140;6.290;2023-11-22T07:07:47;44.63;;;40.08;;
25231;SDS011;13176;51.140;6.290;2023-11-22T07:10:14;42.95;;;38.53;;
25231;SDS011;13176;51.140;6.290;2023-11-22T07:12:41;41.50;;;37.47;;
25231;SDS011;13176;51.140;6.290;2023-11-22T07:15:09;40.72;;;36.72;;
25231;SDS011;13176;51.140;6.290;2023-11-22T07:17:36;39.10;;;35.15;;
25231;SDS011;13176;51.140;6.290;2023-11-22T07:20:03;39.13;;;35.20;;
25231;SDS011;13176;51.140;6.290;2023-11-22T07:22:35;39.25;;;35.30;;
25231;SDS011;13176;51.140;6.290;2023-11-22T07:25:01;40.55;;;36.60;;
25231;SDS011;13176;51.140;6.290;2023-11-22T07:27:28;39.83;;;35.92;;
25231;SDS011;13176;51.140;6.290;2023-11-22T07:29:55;41.92;;;37.88;;
25231;SDS011;13176;51.140;6.290;2023-11-22T07:32:22;42.10;;;38.00;;
25231;SDS011;13176;51.140;6.290;2023-11-22T07:34:50;42.08;;;37.97;;
25231;SDS011;13176;51.140;6.290;2023-11-22T07:37:21;43.17;;;39.08;;
25231;SDS011;13176;51.140;6.290;2023-11-22T07:39:48;45.75;;;41.38;;
25231;SDS011;13176;51.140;6.290;2023-11-22T07:42:16;45.75;;;40.95;;
25231;SDS011;13176;51.140;6.290;2023-11-22T07:44:42;44.65;;;40.15;;
25231;SDS011;13176;51.140;6.290;2023-11-22T07:47:09;45.97;;;41.42;;
25231;SDS011;13176;51.140;6.290;2023-11-22T07:49:40;47.90;;;43.28;;
25231;SDS011;13176;51.140;6.290;2023-11-22T07:52:08;45.70;;;41.33;;
25231;SDS011;13176;51.140;6.290;2023-11-22T07:54:40;42.97;;;38.67;;
25231;SDS011;13176;51.140;6.290;2023-11-22T07:57:06;42.63;;;38.55;;
25231;SDS011;13176;51.140;6.290;2023-11-22T07:59:33;44.97;;;40.65;;
25231;SDS011;13176;51.140;6.290;2023-11-22T08:02:00;40.78;;;36.85;;
25231;SDS011;13176;51.140;6.290;2023-11-22T08:04:33;41.70;;;37.75;;
25231;SDS011;13176;51.140;6.290;2023-11-22T08:06:59;40.72;;;36.88;;
25231;SDS011;13176;51.140;6.290;2023-11-22T08:09:29;39.95;;;35.97;;
25231;SDS011;13176;51.140;6.290;2023-11-22T08:11:59;41.25;;;36.85;;
25231;SDS011;13176;51.140;6.290;2023-11-22T08:14:31;41.35;;;37.05;;
25231;SDS011;13176;51.140;6.290;2023-11-22T08:16:59;40.58;;;36.63;;
25231;SDS011;13176;51.140;6.290;2023-11-22T08:19:25;39.05;;;34.95;;
25231;SDS011;13176;51.140;6.290;2023-11-22T08:21:54;37.45;;;33.55;;
25231;SDS011;13176;51.140;6.290;2023-11-22T08:24:20;35.05;;;31.48;;
25231;SDS011;13176;51.140;6.290;2023-11-22T08:26:47;34.50;;;31.05;;
25231;SDS011;13176;51.140;6.290;2023-11-22T08:29:16;34.35;;;30.92;;
25231;SDS011;13176;51.140;6.290;2023-11-22T08:31:43;35.47;;;31.70;;
25231;SDS011;13176;51.140;6.290;2023-11-22T08:34:10;35.60;;;32.20;;
25231;SDS011;13176;51.140;6.290;2023-11-22T08:36:37;36.25;;;32.78;;
25231;SDS011;13176;51.140;6.290;2023-11-22T08:39:04;33.50;;;30.20;;
25231;SDS011;13176;51.140;6.290;2023-11-22T08:41:34;33.22;;;29.95;;
25231;SDS011;13176;51.140;6.290;2023-11-22T08:44:05;31.50;;;28.33;;
25231;SDS011;13176;51.140;6.290;2023-11-22T08:46:32;32.60;;;29.25;;
25231;SDS011;13176;51.140;6.290;2023-11-22T08:48:59;33.53;;;30.45;;
25231;SDS011;13176;51.140;6.290;2023-11-22T08:51:25;34.40;;;31.05;;
25231;SDS011;13176;51.140;6.290;2023-11-22T08:53:53;34.33;;;30.60;;
25231;SDS011;13176;51.140;6.290;2023-11-22T08:56:19;36.67;;;32.72;;
25231;SDS011;13176;51.140;6.290;2023-11-22T08:58:46;33.92;;;30.50;;
25231;SDS011;13176;51.140;6.290;2023-11-22T09:01:13;36.13;;;32.45;;
25231;SDS011;13176;51.140;6.290;2023-11-22T09:03:41;34.80;;;31.38;;
25231;SDS011;13176;51.140;6.290;2023-11-22T09:06:08;34.20;;;30.85;;
25231;SDS011;13176;51.140;6.290;2023-11-22T09:08:34;35.75;;;32.08;;
25231;SDS011;13176;51.140;6.290;2023-11-22T09:11:02;34.55;;;30.92;;
25231;SDS011;13176;51.140;6.290;2023-11-22T09:13:32;35.63;;;32.10;;
25231;SDS011;13176;51.140;6.290;2023-11-22T09:15:58;34.63;;;31.20;;
25231;SDS011;13176;51.140;6.290;2023-11-22T09:18:25;34.58;;;31.48;;
25231;SDS011;13176;51.140;6.290;2023-11-22T09:20:53;36.75;;;33.35;;
25231;SDS011;13176;51.140;6.290;2023-11-22T09:23:20;34.80;;;31.52;;
25231;SDS011;13176;51.140;6.290;2023-11-22T09:25:49;33.38;;;30.15;;
25231;SDS011;13176;51.140;6.290;2023-11-22T09:28:16;33.55;;;30.38;;
25231;SDS011;13176;51.140;6.290;2023-11-22T09:30:42;33.13;;;29.95;;
25231;SDS011;13176;51.140;6.290;2023-11-22T09:33:13;30.52;;;27.52;;
25231;SDS011;13176;51.140;6.290;2023-11-22T09:35:42;33.25;;;29.95;;
25231;SDS011;13176;51.140;6.290;2023-11-22T09:38:11;31.00;;;28.05;;
25231;SDS011;13176;51.140;6.290;2023-11-22T09:43:10;32.67;;;29.85;;
25231;SDS011;13176;51.140;6.290;2023-11-22T09:45:38;32.08;;;29.35;;
25231;SDS011;13176;51.140;6.290;2023-11-22T09:48:12;32.10;;;29.05;;
25231;SDS011;13176;51.140;6.290;2023-11-22T09:53:10;31.35;;;28.45;;
25231;SDS011;13176;51.140;6.290;2023-11-22T09:55:41;34.67;;;30.20;;
25231;SDS011;13176;51.140;6.290;2023-11-22T09:58:12;29.33;;;26.27;;
25231;SDS011;13176;51.140;6.290;2023-11-22T10:00:40;28.13;;;25.30;;
25231;SDS011;13176;51.140;6.290;2023-11-22T10:03:14;26.67;;;24.08;;
25231;SDS011;13176;51.140;6.290;2023-11-22T10:05:43;26.13;;;23.52;;
25231;SDS011;13176;51.140;6.290;2023-11-22T10:08:10;23.25;;;21.02;;
25231;SDS011;13176;51.140;6.290;2023-11-22T10:10:37;24.48;;;21.95;;
25231;SDS011;13176;51.140;6.290;2023-11-22T10:13:03;26.52;;;24.00;;
25231;SDS011;13176;51.140;6.290;2023-11-22T10:15:30;25.08;;;22.60;;
25231;SDS011;13176;51.140;6.290;2023-11-22T10:17:58;26.58;;;23.77;;
25231;SDS011;13176;51.140;6.290;2023-11-22T10:20:38;25.25;;;23.05;;
25231;SDS011;13176;51.140;6.290;2023-11-22T10:23:09;25.00;;;22.50;;
25231;SDS011;13176;51.140;6.290;2023-11-22T10:25:42;24.65;;;22.20;;
25231;SDS011;13176;51.140;6.290;2023-11-22T10:28:13;25.55;;;23.02;;
25231;SDS011;13176;51.140;6.290;2023-11-22T10:30:39;23.13;;;20.77;;
25231;SDS011;13176;51.140;6.290;2023-11-22T10:33:06;25.50;;;23.33;;
25231;SDS011;13176;51.140;6.290;2023-11-22T10:35:33;24.40;;;22.35;;
25231;SDS011;13176;51.140;6.290;2023-11-22T10:38:00;24.27;;;22.23;;
25231;SDS011;13176;51.140;6.290;2023-11-22T10:40:32;23.75;;;21.67;;
25231;SDS011;13176;51.140;6.290;2023-11-22T10:42:59;23.15;;;21.08;;
25231;SDS011;13176;51.140;6.290;2023-11-22T10:45:26;25.10;;;22.75;;
25231;SDS011;13176;51.140;6.290;2023-11-22T10:47:55;22.67;;;20.65;;
25231;SDS011;13176;51.140;6.290;2023-11-22T10:50:23;24.60;;;22.40;;
25231;SDS011;13176;51.140;6.290;2023-11-22T10:52:50;22.27;;;20.10;;
25231;SDS011;13176;51.140;6.290;2023-11-22T10:55:21;22.30;;;20.30;;
25231;SDS011;13176;51.140;6.290;2023-11-22T10:57:54;22.30;;;20.23;;
25231;SDS011;13176;51.140;6.290;2023-11-22T11:00:27;23.88;;;21.77;;
25231;SDS011;13176;51.140;6.290;2023-11-22T11:02:58;28.50;;;26.00;;
25231;SDS011;13176;51.140;6.290;2023-11-22T11:05:30;27.40;;;25.10;;
25231;SDS011;13176;51.140;6.290;2023-11-22T11:08:02;28.15;;;26.05;;
25231;SDS011;13176;51.140;6.290;2023-11-22T11:10:40;30.88;;;28.30;;
25231;SDS011;13176;51.140;6.290;2023-11-22T11:13:08;29.60;;;27.17;;
25231;SDS011;13176;51.140;6.290;2023-11-22T11:15:39;22.80;;;20.77;;
25231;SDS011;13176;51.140;6.290;2023-11-22T11:18:06;23.38;;;21.52;;
25231;SDS011;13176;51.140;6.290;2023-11-22T11:20:49;23.08;;;21.33;;
25231;SDS011;13176;51.140;6.290;2023-11-22T11:23:20;23.42;;;21.40;;
25231;SDS011;13176;51.140;6.290;2023-11-22T11:25:49;20.80;;;19.00;;
25231;SDS011;13176;51.140;6.290;2023-11-22T11:28:15;22.40;;;20.60;;
25231;SDS011;13176;51.140;6.290;2023-11-22T11:30:44;19.65;;;17.83;;
25231;SDS011;13176;51.140;6.290;2023-11-22T11:33:13;19.88;;;18.08;;
25231;SDS011;13176;51.140;6.290;2023-11-22T11:35:42;23.13;;;21.05;;
25231;SDS011;13176;51.140;6.290;2023-11-22T11:38:14;22.40;;;20.50;;
25231;SDS011;13176;51.140;6.290;2023-11-22T11:40:45;19.88;;;18.17;;
25231;SDS011;13176;51.140;6.290;2023-11-22T11:43:12;22.92;;;19.50;;
25231;SDS011;13176;51.140;6.290;2023-11-22T11:45:39;20.02;;;18.23;;
25231;SDS011;13176;51.140;6.290;2023-11-22T11:48:12;20.58;;;18.73;;
25231;SDS011;13176;51.140;6.290;2023-11-22T11:50:45;20.23;;;18.42;;
25231;SDS011;13176;51.140;6.290;2023-11-22T11:53:12;21.23;;;18.58;;
25231;SDS011;13176;51.140;6.290;2023-11-22T11:55:39;20.08;;;18.17;;
25231;SDS011;13176;51.140;6.290;2023-11-22T11:58:07;21.00;;;19.10;;
25231;SDS011;13176;51.140;6.290;2023-11-22T12:00:36;19.98;;;18.05;;
25231;SDS011;13176;51.140;6.290;2023-11-22T12:03:07;18.98;;;17.17;;
25231;SDS011;13176;51.140;6.290;2023-11-22T12:05:36;18.98;;;17.08;;
25231;SDS011;13176;51.140;6.290;2023-11-22T12:08:04;20.48;;;18.67;;
25231;SDS011;13176;51.140;6.290;2023-11-22T12:10:31;19.25;;;17.55;;
25231;SDS011;13176;51.140;6.290;2023-11-22T12:12:58;17.38;;;15.85;;
25231;SDS011;13176;51.140;6.290;2023-11-22T12:15:31;20.30;;;18.50;;
25231;SDS011;13176;51.140;6.290;2023-11-22T12:17:59;19.38;;;17.58;;
25231;SDS011;13176;51.140;6.290;2023-11-22T12:20:27;18.60;;;17.13;;
25231;SDS011;13176;51.140;6.290;2023-11-22T12:22:58;16.02;;;14.63;;
25231;SDS011;13176;51.140;6.290;2023-11-22T12:25:27;15.43;;;14.02;;
25231;SDS011;13176;51.140;6.290;2023-11-22T12:27:54;19.65;;;17.88;;
25231;SDS011;13176;51.140;6.290;2023-11-22T12:30:27;20.90;;;18.27;;
25231;SDS011;13176;51.140;6.290;2023-11-22T12:33:02;21.55;;;19.55;;
25231;SDS011;13176;51.140;6.290;2023-11-22T12:35:31;23.33;;;21.05;;
25231;SDS011;13176;51.140;6.290;2023-11-22T12:38:00;22.42;;;20.23;;
25231;SDS011;13176;51.140;6.290;2023-11-22T12:40:30;22.42;;;20.42;;
25231;SDS011;13176;51.140;6.290;2023-11-22T12:43:00;23.92;;;21.45;;
25231;SDS011;13176;51.140;6.290;2023-11-22T12:45:28;25.02;;;21.65;;
25231;SDS011;13176;51.140;6.290;2023-11-22T12:47:56;23.13;;;20.92;;
25231;SDS011;13176;51.140;6.290;2023-11-22T12:53:14;22.83;;;20.63;;
25231;SDS011;13176;51.140;6.290;2023-11-22T12:55:42;20.88;;;18.88;;
25231;SDS011;13176;51.140;6.290;2023-11-22T12:58:10;20.05;;;18.25;;
25231;SDS011;13176;51.140;6.290;2023-11-22T13:00:37;14.68;;;13.52;;
25231;SDS011;13176;51.140;6.290;2023-11-22T13:03:07;19.05;;;17.40;;
25231;SDS011;13176;51.140;6.290;2023-11-22T13:05:36;13.65;;;12.45;;
25231;SDS011;13176;51.140;6.290;2023-11-22T13:08:04;10.85;;;9.95;;
25231;SDS011;13176;51.140;6.290;2023-11-22T13:10:31;17.15;;;15.65;;
25231;SDS011;13176;51.140;6.290;2023-11-22T13:12:58;15.30;;;14.02;;
25231;SDS011;13176;51.140;6.290;2023-11-22T13:15:24;15.10;;;13.70;;
25231;SDS011;13176;51.140;6.290;2023-11-22T13:17:52;14.07;;;12.88;;
25231;SDS011;13176;51.140;6.290;2023-11-22T13:20:22;13.60;;;12.45;;
25231;SDS011;13176;51.140;6.290;2023-11-22T13:22:49;14.57;;;12.95;;
25231;SDS011;13176;51.140;6.290;2023-11-22T13:25:16;14.68;;;13.40;;
25231;SDS011;13176;51.140;6.290;2023-11-22T13:27:46;15.48;;;14.18;;
25231;SDS011;13176;51.140;6.290;2023-11-22T13:30:14;12.52;;;11.45;;
25231;SDS011;13176;51.140;6.290;2023-11-22T13:32:41;12.98;;;11.88;;
25231;SDS011;13176;51.140;6.290;2023-11-22T13:35:09;12.73;;;11.65;;
25231;SDS011;13176;51.140;6.290;2023-11-22T13:37:44;12.65;;;11.68;;
25231;SDS011;13176;51.140;6.290;2023-11-22T13:40:11;11.20;;;10.20;;
25231;SDS011;13176;51.140;6.290;2023-11-22T13:42:45;10.68;;;9.68;;
25231;SDS011;13176;51.140;6.290;2023-11-22T13:45:14;11.30;;;10.20;;
25231;SDS011;13176;51.140;6.290;2023-11-22T13:47:44;11.52;;;10.52;;
25231;SDS011;13176;51.140;6.290;2023-11-22T13:50:13;12.55;;;11.38;;
25231;SDS011;13176;51.140;6.290;2023-11-22T13:52:45;12.43;;;11.32;;
25231;SDS011;13176;51.140;6.290;2023-11-22T13:55:14;13.52;;;12.32;;
25231;SDS011;13176;51.140;6.290;2023-11-22T13:57:43;13.18;;;12.02;;
25231;SDS011;13176;51.140;6.290;2023-11-22T14:00:10;13.82;;;11.95;;
25231;SDS011;13176;51.140;6.290;2023-11-22T14:02:39;13.23;;;11.80;;
25231;SDS011;13176;51.140;6.290;2023-11-22T14:05:06;13.30;;;12.05;;
25231;SDS011;13176;51.140;6.290;2023-11-22T14:07:37;13.27;;;11.90;;
25231;SDS011;13176;51.140;6.290;2023-11-22T14:10:04;14.27;;;12.98;;
25231;SDS011;13176;51.140;6.290;2023-11-22T14:12:32;14.60;;;13.20;;
25231;SDS011;13176;51.140;6.290;2023-11-22T14:14:59;15.65;;;14.25;;
25231;SDS011;13176;51.140;6.290;2023-11-22T14:17:26;17.55;;;15.95;;
25231;SDS011;13176;51.140;6.290;2023-11-22T14:19:52;17.17;;;15.77;;
25231;SDS011;13176;51.140;6.290;2023-11-22T14:22:20;17.70;;;15.95;;
25231;SDS011;13176;51.140;6.290;2023-11-22T14:24:48;18.02;;;16.35;;
25231;SDS011;13176;51.140;6.290;2023-11-22T14:27:16;17.50;;;15.98;;
25231;SDS011;13176;51.140;6.290;2023-11-22T14:29:46;17.52;;;15.98;;
25231;SDS011;13176;51.140;6.290;2023-11-22T14:32:17;17.60;;;16.00;;